Time;durP1;ratioP1;P1;durP2;ratioP2;P2;SDS_P1;SDS_P2;PMS_P1;PMS_P2;Temp;Humidity;BMP_temperature;BMP_pressure;BME280_temperature;BME280_humidity;BME280_pressure;Samples;Min_cycle;Max_cycle;Signal;HPM_P1;HPM_P2
2022/03/30 00:02:08;;;;;;;23.00;5.53;;;;;;;-145.69;67.42;71052.19;5072319;28;20206;-77
2022/03/30 00:04:41;;;;;;;27.53;6.00;;;;;;;-145.69;68.02;71050.22;5068949;28;20198;-77
2022/03/30 00:07:07;;;;;;;28.10;4.63;;;;;;;-145.69;68.07;71052.19;5072639;28;20217;-77
2022/03/30 00:09:34;;;;;;;26.10;5.00;;;;;;;-145.69;67.73;71054.19;5072661;28;20198;-78
2022/03/30 00:12:00;;;;;;;27.50;5.73;;;;;;;-145.69;67.99;71062.13;5072681;28;20209;-78
2022/03/30 00:14:37;;;;;;;44.43;5.30;;;;;;;-145.69;68.15;71062.13;5072388;28;20195;-77
2022/03/30 00:17:06;;;;;;;28.03;6.60;;;;;;;-145.69;67.54;71064.13;5072415;28;20295;-78
2022/03/30 00:19:33;;;;;;;24.77;5.20;;;;;;;-145.69;67.70;71064.13;5072364;28;20195;-78
2022/03/30 00:22:02;;;;;;;25.77;5.73;;;;;;;-145.69;68.40;71068.13;5072610;28;20202;-78
2022/03/30 00:24:30;;;;;;;38.63;5.77;;;;;;;-145.69;67.86;71062.13;5072496;28;20206;-78
2022/03/30 00:27:02;;;;;;;28.60;5.37;;;;;;;-145.69;67.49;71060.16;5072450;28;20214;-78
2022/03/30 00:29:28;;;;;;;30.87;5.20;;;;;;;-145.69;67.78;71050.22;5072514;28;20230;-77
2022/03/30 00:31:56;;;;;;;27.43;5.10;;;;;;;-145.69;68.00;71046.22;5072246;28;20219;-78
2022/03/30 00:34:23;;;;;;;31.40;5.47;;;;;;;-145.69;67.49;71040.25;5072418;28;20205;-78
2022/03/30 00:36:52;;;;;;;42.40;6.00;;;;;;;-145.69;67.83;71032.28;5072413;28;20562;-78
2022/03/30 00:39:18;;;;;;;29.97;5.47;;;;;;;-145.69;68.27;71024.34;5072375;28;20289;-78
2022/03/30 00:41:45;;;;;;;35.70;6.23;;;;;;;-145.69;67.23;71018.38;5072347;28;20285;-78
2022/03/30 00:44:14;;;;;;;26.00;6.23;;;;;;;-145.69;67.24;71008.41;5072285;28;20210;-77
2022/03/30 00:46:42;;;;;;;26.33;5.33;;;;;;;-145.69;66.80;71004.44;5072453;28;20205;-77
2022/03/30 00:49:10;;;;;;;32.17;5.63;;;;;;;-145.69;67.51;70994.50;5072093;28;20589;-77
2022/03/30 00:51:37;;;;;;;29.03;5.33;;;;;;;-145.69;67.41;70998.47;5072176;28;20199;-77
2022/03/30 00:54:04;;;;;;;26.63;6.47;;;;;;;-145.69;67.26;70998.47;5072104;28;20203;-78
2022/03/30 00:56:33;;;;;;;27.30;5.73;;;;;;;-145.69;67.10;70994.50;5072498;28;20332;-77
2022/03/30 00:59:01;;;;;;;34.67;5.87;;;;;;;-145.69;67.80;70988.53;5075698;28;20658;-77
2022/03/30 01:01:28;;;;;;;27.70;5.68;;;;;;;-145.69;67.42;70994.50;5074660;28;20430;-78
2022/03/30 01:03:55;;;;;;;34.43;5.43;;;;;;;-145.69;68.63;70994.50;5075306;28;20194;-77
2022/03/30 01:06:25;;;;;;;24.73;5.00;;;;;;;-145.69;69.04;70992.50;5075712;28;20199;-77
2022/03/30 01:08:52;;;;;;;37.27;6.27;;;;;;;-145.69;69.36;70984.53;5075402;28;20261;-78
2022/03/30 01:11:19;;;;;;;29.80;6.27;;;;;;;-145.69;70.83;70984.53;5075499;28;20688;-77
2022/03/30 01:13:48;;;;;;;47.80;6.63;;;;;;;-145.69;70.67;70978.56;5064946;28;20307;-77
2022/03/30 01:16:17;;;;;;;39.63;6.37;;;;;;;-145.69;72.93;70976.59;5055339;28;20228;-77
2022/03/30 01:18:44;;;;;;;26.83;5.47;;;;;;;-145.69;75.42;70984.53;5055327;28;20712;-78
2022/03/30 01:21:17;;;;;;;29.77;5.10;;;;;;;-145.69;75.11;70984.53;5055435;28;20199;-77
2022/03/30 01:23:44;;;;;;;28.80;5.10;;;;;;;-145.69;75.19;70988.53;5055629;28;20199;-77
2022/03/30 01:26:11;;;;;;;41.97;5.90;;;;;;;-145.69;76.78;70982.56;5070324;28;20277;-77
2022/03/30 01:28:37;;;;;;;35.67;6.33;;;;;;;-145.69;75.38;70976.59;5075010;28;20260;-77
2022/03/30 01:33:53;;;;;;;24.93;5.27;;;;;;;-145.69;78.11;70986.53;5075163;28;20280;-77
2022/03/30 01:36:25;;;;;;;35.17;5.17;;;;;;;-145.69;79.12;70986.53;5075217;28;20194;-77
2022/03/30 01:38:52;;;;;;;29.53;4.97;;;;;;;-145.69;77.25;70990.50;5075239;28;20210;-77
2022/03/30 01:41:20;;;;;;;20.37;5.83;;;;;;;-145.69;77.07;70992.50;5075305;28;20202;-77
2022/03/30 01:43:49;;;;;;;33.53;6.47;;;;;;;-145.69;78.55;70974.59;5074935;28;20195;-77
2022/03/30 01:46:16;;;;;;;21.80;5.87;;;;;;;-145.69;77.85;70976.59;5074847;28;20226;-78
2022/03/30 01:48:47;;;;;;;27.33;5.83;;;;;;;-145.69;82.11;70996.47;5074913;28;20241;-77
2022/03/30 01:51:16;;;;;;;29.70;5.83;;;;;;;-145.69;82.88;71016.38;5074922;28;20241;-78
2022/03/30 01:53:45;;;;;;;30.93;6.20;;;;;;;-145.69;84.01;71014.38;5074844;28;20628;-77
2022/03/30 01:56:12;;;;;;;30.77;4.87;;;;;;;-145.69;83.54;71012.41;5074402;28;20549;-78
2022/03/30 01:58:49;;;;;;;33.73;6.10;;;;;;;-145.69;83.82;71012.41;5074367;28;20670;-77
2022/03/30 02:01:15;;;;;;;31.13;5.67;;;;;;;-145.69;77.69;70974.59;5074199;28;20191;-78
2022/03/30 02:03:42;;;;;;;28.13;6.20;;;;;;;-145.69;80.63;70972.59;5074787;28;20199;-78
2022/03/30 02:06:14;;;;;;;38.37;6.10;;;;;;;-145.69;81.48;70972.59;5074581;28;20199;-77
2022/03/30 02:08:51;;;;;;;21.50;5.13;;;;;;;-145.69;82.03;70974.59;5073624;28;20227;-77
2022/03/30 02:11:21;;;;;;;27.33;5.33;;;;;;;-145.69;83.78;70978.56;5074414;28;20290;-78
2022/03/30 02:13:50;;;;;;;19.93;5.10;;;;;;;-145.69;84.95;70984.53;5074281;28;20701;-77
2022/03/30 02:16:17;;;;;;;31.47;5.63;;;;;;;-145.69;83.76;70968.63;5073882;28;20713;-78
2022/03/30 02:18:45;;;;;;;31.10;5.83;;;;;;;-145.69;85.40;70976.59;5074316;28;20665;-78
2022/03/30 02:21:15;;;;;;;20.17;5.63;;;;;;;-145.69;86.68;70972.59;5074308;28;20202;-77
2022/03/30 02:23:55;;;;;;;24.93;5.50;;;;;;;-145.69;84.38;70968.63;5074306;28;20678;-77
2022/03/30 02:26:23;;;;;;;32.17;5.33;;;;;;;-145.69;83.25;70964.66;5073874;28;20202;-77
2022/03/30 02:28:52;;;;;;;34.23;5.00;;;;;;;-145.69;86.61;70962.66;5074000;28;20230;-77
2022/03/30 02:31:20;;;;;;;28.47;6.70;;;;;;;-145.69;88.96;70964.66;5073222;28;20231;-78
2022/03/30 02:33:46;;;;;;;22.80;5.87;;;;;;;-145.69;88.26;70972.59;5073985;28;20207;-77
2022/03/30 02:36:14;;;;;;;24.33;5.30;;;;;;;-145.69;88.11;70974.59;5073912;28;20277;-77
2022/03/30 02:38:48;;;;;;;32.63;7.50;;;;;;;-145.69;89.46;70966.63;5073789;28;20234;-77
2022/03/30 02:41:17;;;;;;;30.33;5.50;;;;;;;-145.69;86.84;70960.66;5074205;28;20293;-77
2022/03/30 02:43:46;;;;;;;26.53;6.03;;;;;;;-145.69;86.73;70960.66;5073907;28;20293;-77
2022/03/30 02:46:20;;;;;;;22.10;5.30;;;;;;;-145.69;87.75;70952.72;5073492;28;20198;-77
2022/03/30 02:48:47;;;;;;;27.17;5.60;;;;;;;-145.69;88.71;70954.69;5073538;28;20230;-77
2022/03/30 02:51:15;;;;;;;29.80;6.30;;;;;;;-145.69;89.63;70950.72;5073830;28;20252;-77
2022/03/30 02:53:43;;;;;;;33.13;5.60;;;;;;;-145.69;90.31;70936.78;5073798;28;20198;-78
2022/03/30 02:56:10;;;;;;;32.33;6.07;;;;;;;-145.69;87.17;70936.78;5073432;28;20204;-77
2022/03/30 02:58:43;;;;;;;34.23;5.80;;;;;;;-145.69;91.83;70944.75;5073513;28;20297;-77
2022/03/30 03:01:11;;;;;;;34.03;6.00;;;;;;;-145.69;87.36;70938.78;5073544;28;20252;-78
2022/03/30 03:03:44;;;;;;;31.63;5.50;;;;;;;-145.69;87.42;70924.84;5073420;28;20202;-78
2022/03/30 03:06:11;;;;;;;19.67;5.80;;;;;;;-145.69;88.92;70938.78;5073575;28;20195;-77
2022/03/30 03:08:37;;;;;;;31.67;6.27;;;;;;;-145.69;90.25;70954.69;5073494;28;20226;-77
2022/03/30 03:11:04;;;;;;;25.33;6.33;;;;;;;-145.69;94.71;70974.59;5073619;28;20225;-77
2022/03/30 03:13:38;;;;;;;34.23;6.83;;;;;;;-145.69;91.18;70948.72;5073485;28;20203;-77
2022/03/30 03:16:26;;;;;;;31.93;6.17;;;;;;;-145.69;96.55;70974.59;5072709;28;20685;-77
2022/03/30 03:18:53;;;;;;;26.03;5.80;;;;;;;-145.69;100.00;71012.41;5057332;28;20650;-76
2022/03/30 03:21:19;;;;;;;32.53;6.13;;;;;;;-145.69;100.00;71032.28;5053118;28;20257;-77
2022/03/30 03:23:46;;;;;;;23.90;6.70;;;;;;;-145.69;100.00;71036.28;5053141;28;20204;-77
2022/03/30 03:26:12;;;;;;;21.13;6.70;;;;;;;-145.69;100.00;71058.16;5066408;28;20206;-76
2022/03/30 03:28:42;;;;;;;19.53;6.07;;;;;;;-145.69;100.00;71066.13;5073175;28;20339;-76
2022/03/30 03:31:09;;;;;;;32.60;7.50;;;;;;;-145.69;100.00;71070.09;5072989;28;20538;-76
2022/03/30 03:33:39;;;;;;;24.90;6.77;;;;;;;-145.69;100.00;71072.09;5073098;28;20198;-77
2022/03/30 03:36:06;;;;;;;35.47;8.00;;;;;;;-145.69;100.00;71078.06;5073062;28;20199;-76
2022/03/30 03:38:32;;;;;;;29.47;6.60;;;;;;;-145.69;100.00;71076.06;5072975;28;20586;-76
2022/03/30 03:40:59;;;;;;;33.87;8.53;;;;;;;-145.69;100.00;71074.09;5072912;28;20202;-76
2022/03/30 03:43:25;;;;;;;34.73;8.60;;;;;;;-145.69;100.00;71072.09;5073306;28;20199;-76
2022/03/30 03:45:52;;;;;;;33.70;7.57;;;;;;;-145.69;100.00;71088.00;5073056;28;20225;-77
2022/03/30 03:48:20;;;;;;;33.97;8.27;;;;;;;-145.69;100.00;71095.97;5073092;28;20221;-77
2022/03/30 03:50:48;;;;;;;33.53;7.50;;;;;;;-145.69;100.00;71095.97;5072880;28;20214;-76
2022/03/30 03:53:14;;;;;;;32.17;9.18;;;;;;;-145.69;100.00;71097.97;5072080;28;20483;-77
2022/03/30 03:55:41;;;;;;;39.80;8.47;;;;;;;-145.69;100.00;71093.97;5072504;28;20199;-77
2022/03/30 03:58:09;;;;;;;30.80;8.13;;;;;;;-145.69;100.00;71095.97;5072885;28;20218;-76
2022/03/30 04:00:36;;;;;;;34.57;7.87;;;;;;;-145.69;100.00;71093.97;5072548;28;20301;-76
2022/03/30 04:03:03;;;;;;;30.67;9.07;;;;;;;-145.69;100.00;71086.03;5072825;28;20206;-77
2022/03/30 04:05:29;;;;;;;34.90;8.57;;;;;;;-145.69;100.00;71070.09;5072814;28;20199;-77
2022/03/30 04:07:57;;;;;;;36.10;8.47;;;;;;;-145.69;100.00;71064.13;5072665;28;20259;-76
2022/03/30 04:10:24;;;;;;;46.70;9.47;;;;;;;-145.69;100.00;71058.16;5072735;28;20230;-77
2022/03/30 04:12:50;;;;;;;36.13;9.53;;;;;;;-145.69;100.00;71054.19;5072856;28;20272;-76
2022/03/30 04:15:17;;;;;;;31.53;8.97;;;;;;;-145.69;100.00;71060.16;5072520;28;20203;-76
2022/03/30 04:17:46;;;;;;;28.13;8.60;;;;;;;-145.69;100.00;71062.13;5072643;28;20258;-77
2022/03/30 04:20:14;;;;;;;28.43;8.60;;;;;;;-145.69;100.00;71056.16;5072797;28;20206;-77
2022/03/30 04:22:43;;;;;;;36.53;8.93;;;;;;;-145.69;100.00;71054.19;5072611;28;20210;-77
2022/03/30 04:25:11;;;;;;;26.23;9.20;;;;;;;-145.69;100.00;71056.16;5072779;28;20569;-77
2022/03/30 04:27:44;;;;;;;24.10;8.67;;;;;;;-145.69;100.00;71060.16;5072658;28;20202;-77
2022/03/30 04:30:12;;;;;;;31.57;9.30;;;;;;;-145.69;100.00;71058.16;5072549;28;20226;-77
2022/03/30 04:32:39;;;;;;;32.60;8.80;;;;;;;-145.69;100.00;71058.16;5074676;28;20556;-77
2022/03/30 04:35:09;;;;;;;27.80;8.68;;;;;;;-145.69;100.00;71060.16;5076480;28;20094;-77
2022/03/30 04:37:39;;;;;;;33.70;8.53;;;;;;;-145.69;100.00;71060.16;5076257;28;20666;-77
2022/03/30 04:40:06;;;;;;;29.63;10.33;;;;;;;-145.69;100.00;71048.22;5076228;28;20569;-77
2022/03/30 04:42:34;;;;;;;24.70;9.23;;;;;;;-145.69;100.00;71048.22;5076193;28;20697;-77
2022/03/30 04:45:01;;;;;;;28.53;8.77;;;;;;;-145.69;100.00;71048.22;5075920;28;20201;-77
2022/03/30 04:47:28;;;;;;;30.80;9.30;;;;;;;-145.69;100.00;71044.22;5076162;28;20256;-77
2022/03/30 04:49:54;;;;;;;30.87;8.43;;;;;;;-145.69;100.00;71044.22;5075847;28;20264;-76
2022/03/30 04:52:21;;;;;;;32.97;9.67;;;;;;;-145.69;100.00;71046.22;5076176;28;20205;-77
2022/03/30 04:54:47;;;;;;;26.13;7.70;;;;;;;-145.69;100.00;71054.19;5076164;28;20203;-76
2022/03/30 04:57:17;;;;;;;23.30;8.70;;;;;;;-145.69;100.00;71064.13;5075860;28;20634;-77
2022/03/30 04:59:44;;;;;;;36.07;9.80;;;;;;;-145.69;100.00;71068.13;5076040;28;20202;-77
2022/03/30 05:02:11;;;;;;;42.00;9.07;;;;;;;-145.69;100.00;71066.13;5075826;28;20298;-77
2022/03/30 05:04:38;;;;;;;35.83;8.77;;;;;;;-145.69;100.00;71066.13;5076079;28;20201;-77
2022/03/30 05:07:04;;;;;;;33.53;9.67;;;;;;;-145.69;100.00;71064.13;5075782;28;20557;-76
2022/03/30 05:09:31;;;;;;;30.07;10.17;;;;;;;-145.69;100.00;71060.16;5075779;28;20287;-77
2022/03/30 05:11:57;;;;;;;31.70;8.93;;;;;;;-145.69;100.00;71062.13;5065574;28;20206;-77
2022/03/30 05:14:24;;;;;;;31.93;8.77;;;;;;;-145.69;100.00;71052.19;5058224;28;20286;-76
2022/03/30 05:16:52;;;;;;;36.60;10.43;;;;;;;-145.69;100.00;71050.22;5075319;28;20442;-76
2022/03/30 05:19:18;;;;;;;28.87;8.93;;;;;;;-145.69;100.00;71048.22;5075269;28;20210;-76
2022/03/30 05:21:45;;;;;;;33.77;9.30;;;;;;;-145.69;100.00;71050.22;5075636;28;20202;-77
2022/03/30 05:24:13;;;;;;;35.03;9.77;;;;;;;-145.69;100.00;71044.22;5075496;28;20336;-76
2022/03/30 05:26:42;;;;;;;32.67;9.30;;;;;;;-145.69;100.00;71046.22;5075448;28;20198;-76
2022/03/30 05:29:08;;;;;;;27.47;8.23;;;;;;;-145.69;100.00;71052.19;5075338;28;20581;-76
2022/03/30 05:31:35;;;;;;;34.90;9.20;;;;;;;-145.69;100.00;71056.16;5075341;28;20206;-76
2022/03/30 05:34:03;;;;;;;29.67;9.27;;;;;;;-145.69;100.00;71052.19;5075531;28;20202;-76
2022/03/30 05:36:29;;;;;;;28.87;8.17;;;;;;;-145.69;100.00;71054.19;5075291;28;20233;-76
2022/03/30 05:38:56;;;;;;;32.07;9.07;;;;;;;-145.69;100.00;71044.22;5075298;28;20202;-76
2022/03/30 05:41:22;;;;;;;37.97;9.57;;;;;;;-145.69;100.00;71048.22;5075168;28;20203;-76
2022/03/30 05:43:49;;;;;;;41.63;9.00;;;;;;;-145.69;100.00;71030.31;5073618;28;20206;-76
2022/03/30 05:46:15;;;;;;;34.37;8.33;;;;;;;-145.69;100.00;71032.28;5074951;28;20668;-77
2022/03/30 05:48:41;;;;;;;24.53;9.03;;;;;;;-145.69;100.00;71032.28;5075270;28;20211;-77
2022/03/30 05:51:09;;;;;;;35.87;8.97;;;;;;;-145.69;100.00;71036.28;5074713;28;20768;-77
2022/03/30 05:53:36;;;;;;;29.17;8.57;;;;;;;-145.69;100.00;71026.31;5074855;28;20206;-77
2022/03/30 05:56:03;;;;;;;33.47;8.30;;;;;;;-145.69;100.00;71034.28;5074950;28;20199;-77
2022/03/30 05:58:29;;;;;;;31.07;8.10;;;;;;;-145.69;100.00;71026.31;5074646;28;20203;-77
2022/03/30 06:00:56;;;;;;;39.47;8.70;;;;;;;-145.69;100.00;71024.34;5074907;28;20206;-78
2022/03/30 06:03:23;;;;;;;29.83;8.03;;;;;;;-145.69;100.00;71020.34;5074759;28;20202;-77
2022/03/30 06:05:50;;;;;;;30.40;8.40;;;;;;;-145.69;100.00;71016.38;5074551;28;20209;-76
2022/03/30 06:08:18;;;;;;;31.50;8.23;;;;;;;-145.69;100.00;71018.38;5074742;28;20207;-77
2022/03/30 06:10:45;;;;;;;30.60;8.47;;;;;;;-145.69;100.00;71020.34;5074437;28;20233;-78
2022/03/30 06:13:11;;;;;;;25.87;8.00;;;;;;;-145.69;100.00;71012.41;5074374;28;20194;-77
2022/03/30 06:15:39;;;;;;;42.67;8.73;;;;;;;-145.69;100.00;71016.38;5074353;28;20206;-77
2022/03/30 06:18:10;;;;;;;34.20;8.53;;;;;;;-145.69;100.00;71016.38;5074095;28;20222;-77
2022/03/30 06:20:38;;;;;;;34.63;8.03;;;;;;;-145.69;100.00;71008.41;5074424;28;20245;-77
2022/03/30 06:23:07;;;;;;;29.97;9.13;;;;;;;-145.69;100.00;71006.44;5074388;28;20202;-77
2022/03/30 06:25:35;;;;;;;519.43;108.97;;;;;;;-145.69;100.00;70998.47;5074100;28;20210;-77
2022/03/30 06:28:02;;;;;;;810.10;215.27;;;;;;;-145.69;100.00;70996.47;5074426;28;20207;-77
2022/03/30 06:30:29;;;;;;;137.93;30.67;;;;;;;-145.69;100.00;70982.56;5074263;28;20292;-77
2022/03/30 06:32:56;;;;;;;57.93;14.20;;;;;;;-145.69;100.00;70980.56;5074148;28;20248;-77
2022/03/30 06:35:24;;;;;;;52.30;14.60;;;;;;;-145.69;100.00;70968.63;5072902;28;20937;-77
2022/03/30 06:37:53;;;;;;;28.93;7.10;;;;;;;-145.69;100.00;70954.69;5073845;28;20203;-77
2022/03/30 06:40:20;;;;;;;74.13;20.93;;;;;;;-145.69;100.00;70956.69;5073522;28;20195;-77
2022/03/30 06:42:48;;;;;;;52.70;12.97;;;;;;;-145.69;100.00;70950.72;5074075;28;20195;-76
2022/03/30 06:45:15;;;;;;;92.80;33.17;;;;;;;-145.69;100.00;70942.75;5073952;28;20199;-77
2022/03/30 06:47:42;;;;;;;32.83;9.10;;;;;;;-145.69;100.00;70932.81;5073808;28;20209;-77
2022/03/30 06:50:09;;;;;;;35.73;7.93;;;;;;;-145.69;100.00;70938.78;5073671;28;20254;-77
2022/03/30 06:52:36;;;;;;;35.00;11.47;;;;;;;-145.69;100.00;70936.78;5073663;28;20207;-76
2022/03/30 06:55:05;;;;;;;29.40;8.00;;;;;;;-145.69;100.00;70930.81;5073451;28;20203;-77
2022/03/30 06:57:32;;;;;;;37.67;7.70;;;;;;;-145.69;100.00;70926.84;5073536;28;20684;-77
2022/03/30 06:59:59;;;;;;;34.07;8.17;;;;;;;-145.69;100.00;70932.81;5073503;28;20198;-77
2022/03/30 07:02:26;;;;;;;35.53;9.20;;;;;;;-145.69;100.00;70932.81;5071858;28;20203;-77
2022/03/30 07:04:55;;;;;;;38.17;7.33;;;;;;;-145.69;100.00;70928.84;5053472;28;20196;-77
2022/03/30 07:10:15;;;;;;;32.60;7.33;;;;;;;-145.69;100.00;70922.88;5070002;28;20272;-77
2022/03/30 07:12:46;;;;;;;36.87;7.57;;;;;;;-145.69;100.00;70920.88;5073446;28;20202;-77
2022/03/30 07:15:16;;;;;;;26.50;6.80;;;;;;;-145.69;100.00;70928.84;5073303;28;20203;-77
2022/03/30 07:17:47;;;;;;;33.07;7.63;;;;;;;-145.69;100.00;70936.78;5072820;28;20239;-77
2022/03/30 07:20:16;;;;;;;25.97;7.13;;;;;;;-145.69;100.00;70924.84;5073565;28;20533;-77
2022/03/30 07:22:44;;;;;;;36.53;8.27;;;;;;;-145.69;100.00;70914.91;5073231;28;20210;-77
2022/03/30 07:25:11;;;;;;;30.53;8.07;;;;;;;-145.69;100.00;70914.91;5073174;28;20199;-77
2022/03/30 07:27:41;;;;;;;36.80;8.57;;;;;;;-145.69;100.00;70897.00;5071963;28;20456;-77
2022/03/30 07:30:09;;;;;;;22.37;7.00;;;;;;;-145.69;100.00;70893.03;5072562;28;20227;-77
2022/03/30 07:32:42;;;;;;;26.07;6.80;;;;;;;-145.69;100.00;70889.03;5072986;28;20688;-77
2022/03/30 07:35:10;;;;;;;25.70;7.13;;;;;;;-145.69;100.00;70883.06;5073272;28;20297;-77
2022/03/30 07:37:40;;;;;;;39.03;7.43;;;;;;;-145.69;100.00;70885.06;5073049;28;20206;-77
2022/03/30 07:40:09;;;;;;;26.93;7.73;;;;;;;-145.69;100.00;70889.03;5072754;28;20296;-77
2022/03/30 07:42:36;;;;;;;29.27;7.00;;;;;;;-145.69;100.00;70881.09;5072880;28;20211;-77
2022/03/30 07:45:07;;;;;;;37.50;9.70;;;;;;;-145.69;100.00;70889.03;5073053;28;20202;-77
2022/03/30 07:47:33;;;;;;;40.03;10.37;;;;;;;-145.69;100.00;70885.06;5072900;28;20206;-77
2022/03/30 07:50:01;;;;;;;31.83;7.00;;;;;;;-145.69;100.00;70875.13;5073118;28;20234;-78
2022/03/30 07:52:30;;;;;;;29.50;7.80;;;;;;;-145.69;100.00;70881.09;5073170;28;20198;-78
2022/03/30 07:54:57;;;;;;;38.13;7.87;;;;;;;-145.69;100.00;70885.06;5072978;28;20203;-78
2022/03/30 07:57:26;;;;;;;24.37;6.60;;;;;;;-145.69;100.00;70875.13;5072821;28;20662;-77
2022/03/30 07:59:53;;;;;;;37.47;13.40;;;;;;;-145.69;100.00;70873.13;5072915;28;20199;-78
2022/03/30 08:02:25;;;;;;;28.97;7.33;;;;;;;-145.69;100.00;70865.16;5072975;28;20210;-77
2022/03/30 08:04:52;;;;;;;25.90;6.73;;;;;;;-145.69;100.00;70865.16;5072512;28;20293;-77
2022/03/30 08:07:19;;;;;;;30.53;7.90;;;;;;;-145.69;100.00;70859.19;5074712;28;20202;-77
2022/03/30 08:09:47;;;;;;;31.23;7.30;;;;;;;-145.69;100.00;70853.22;5076387;28;20191;-77
2022/03/30 08:12:14;;;;;;;28.00;6.70;;;;;;;-145.69;100.00;70853.22;5076989;28;20199;-77
2022/03/30 08:14:41;;;;;;;19.83;6.63;;;;;;;-145.69;100.00;70845.28;5076777;28;20206;-77
2022/03/30 08:17:08;;;;;;;28.90;7.53;;;;;;;-145.69;100.00;70841.28;5076105;28;20578;-78
2022/03/30 08:19:36;;;;;;;41.33;8.20;;;;;;;-145.69;100.00;70837.31;5076601;28;20294;-78
2022/03/30 08:25:00;;;;;;;33.53;7.03;;;;;;;-145.69;100.00;70821.41;5076425;28;20203;-78
2022/03/30 08:27:28;;;;;;;34.30;8.00;;;;;;;-145.69;100.00;70827.38;5076326;28;20285;-78
2022/03/30 08:29:56;;;;;;;27.13;6.27;;;;;;;-145.69;100.00;70809.47;5076537;28;20202;-77
2022/03/30 08:32:29;;;;;;;18.47;5.67;;;;;;;-145.69;100.00;70821.41;5075049;28;20235;-79
2022/03/30 08:34:56;;;;;;;37.07;7.40;;;;;;;-145.69;100.00;70817.41;5076517;28;20194;-77
2022/03/30 08:37:27;;;;;;;29.03;7.70;;;;;;;-145.69;100.00;70817.41;5076404;28;20211;-77
2022/03/30 08:39:56;;;;;;;25.57;6.17;;;;;;;-145.69;100.00;70809.47;5076261;28;20198;-77
2022/03/30 08:42:22;;;;;;;30.47;6.73;;;;;;;-145.69;100.00;70813.44;5076305;28;20203;-77
2022/03/30 08:45:01;;;;;;;32.77;7.63;;;;;;;-145.69;100.00;70821.41;5076066;28;20206;-78
2022/03/30 08:47:30;;;;;;;28.67;5.67;;;;;;;-145.69;100.00;70801.50;5076086;28;20339;-77
2022/03/30 08:49:57;;;;;;;24.87;6.50;;;;;;;-145.69;100.00;70807.47;5076045;28;20602;-78
2022/03/30 08:52:23;;;;;;;35.57;10.97;;;;;;;-145.69;100.00;70821.41;5075627;28;20202;-77
2022/03/30 08:54:55;;;;;;;25.67;5.67;;;;;;;-145.69;100.00;70825.38;5075944;28;20221;-77
2022/03/30 08:57:23;;;;;;;30.50;7.40;;;;;;;-145.69;100.00;70829.34;5075492;28;20282;-78
2022/03/30 09:00:02;;;;;;;21.57;5.17;;;;;;;-145.69;100.00;70841.28;5076081;28;20202;-77
2022/03/30 09:02:37;;;;;;;27.37;6.23;;;;;;;-145.69;100.00;70839.31;5075715;28;20198;-77
2022/03/30 09:05:21;;;;;;;21.70;5.37;;;;;;;-145.69;100.00;70843.28;5075828;28;20255;-77
2022/03/30 09:07:50;;;;;;;28.40;5.40;;;;;;;-145.69;100.00;70843.28;5075611;28;20238;-76
2022/03/30 09:10:21;;;;;;;30.50;6.27;;;;;;;-145.69;100.00;70837.31;5075443;28;20229;-77
2022/03/30 09:12:52;;;;;;;15.17;4.67;;;;;;;-145.69;100.00;70841.28;5069068;28;20206;-77
2022/03/30 09:15:20;;;;;;;25.00;5.07;;;;;;;-145.69;100.00;70845.28;5055714;28;20269;-77
2022/03/30 09:17:49;;;;;;;17.40;5.17;;;;;;;-145.69;100.00;70843.28;5054914;28;20266;-77
2022/03/30 09:20:20;;;;;;;18.73;5.27;;;;;;;-145.69;100.00;70837.31;5055504;28;20200;-77
2022/03/30 09:22:48;;;;;;;22.50;4.70;;;;;;;-145.69;100.00;70833.34;5055212;28;20547;-77
2022/03/30 09:25:15;;;;;;;15.67;4.70;;;;;;;-145.69;100.00;70817.41;5055653;28;20257;-77
2022/03/30 09:27:44;;;;;;;18.77;4.67;;;;;;;-145.69;100.00;70811.44;5074201;28;20557;-80
2022/03/30 09:30:15;;;;;;;18.87;5.17;;;;;;;-145.69;100.00;70817.41;5072819;28;20244;-77
2022/03/30 09:32:47;;;;;;;14.17;4.37;;;;;;;-145.69;100.00;70797.53;5053130;28;20211;-78
2022/03/30 09:35:24;;;;;;;12.80;4.27;;;;;;;-145.69;100.00;70793.53;5053801;28;20203;-77
2022/03/30 09:38:09;;;;;;;17.00;4.07;;;;;;;-145.69;100.00;70777.63;5054700;28;20210;-79
2022/03/30 09:40:41;;;;;;;14.67;3.53;;;;;;;-145.69;100.00;70777.63;5055163;28;20255;-78
2022/03/30 09:43:22;;;;;;;11.73;4.00;;;;;;;-145.69;100.00;70773.66;5054755;28;20207;-79
2022/03/30 09:46:05;;;;;;;10.87;3.07;;;;;;;-145.69;100.00;70769.66;5052908;28;20202;-78
2022/03/30 09:48:34;;;;;;;13.37;4.10;;;;;;;-145.69;100.00;70761.72;5052998;28;20203;-77
2022/03/30 09:51:02;;;;;;;18.67;4.33;;;;;;;-145.69;100.00;70763.69;5053800;28;20239;-77
2022/03/30 09:53:31;;;;;;;11.73;3.37;;;;;;;-145.69;100.00;70773.66;5054195;28;20223;-77
2022/03/30 09:56:01;;;;;;;9.43;2.93;;;;;;;-145.69;100.00;70781.59;5061355;28;20210;-76
2022/03/30 09:58:30;;;;;;;12.50;3.30;;;;;;;-145.69;100.00;70777.63;5074301;28;20230;-77
2022/03/30 10:01:13;;;;;;;13.40;3.97;;;;;;;-145.69;100.00;70777.63;5074753;28;20206;-77
2022/03/30 10:03:45;;;;;;;12.03;3.70;;;;;;;-145.69;100.00;70769.66;5074608;28;20198;-78
2022/03/30 10:06:14;;;;;;;16.33;3.67;;;;;;;-145.69;100.00;70769.66;5073969;28;20206;-78
2022/03/30 10:08:42;;;;;;;18.50;4.17;;;;;;;-145.69;100.00;70777.63;5074581;28;20275;-77
2022/03/30 10:11:13;;;;;;;13.63;4.10;;;;;;;-145.69;100.00;70765.69;5073353;28;20454;-76
2022/03/30 10:13:40;;;;;;;13.40;4.10;;;;;;;-145.69;100.00;70765.69;5074383;28;20203;-76
2022/03/30 10:16:13;;;;;;;15.90;5.30;;;;;;;-145.69;100.00;70763.69;5074378;28;20230;-77
2022/03/30 10:18:42;;;;;;;10.20;4.53;;;;;;;-145.69;100.00;70759.72;5073843;28;20597;-77
2022/03/30 10:21:26;;;;;;;15.00;5.23;;;;;;;-145.69;100.00;70745.78;5074085;28;20650;-77
2022/03/30 10:24:14;;;;;;;17.13;5.17;;;;;;;-145.69;100.00;70702.03;5073942;28;20553;-76
2022/03/30 10:26:56;;;;;;;11.93;4.40;;;;;;;-145.69;100.00;70640.34;5073992;28;20203;-76
2022/03/30 10:29:25;;;;;;;14.40;4.67;;;;;;;-145.69;100.00;70598.56;5072864;28;20561;-77
2022/03/30 10:32:17;;;;;;;13.33;5.00;;;;;;;-145.69;100.00;70578.69;5074087;28;20574;-77
2022/03/30 10:34:51;;;;;;;14.80;4.50;;;;;;;-145.69;100.00;70558.78;5074009;28;20198;-77
2022/03/30 10:37:25;;;;;;;9.73;3.80;;;;;;;-145.69;100.00;70538.88;5073882;28;20241;-76
2022/03/30 10:39:57;;;;;;;18.33;4.83;;;;;;;-145.69;100.00;70590.63;5073631;28;20210;-78
2022/03/30 10:42:24;;;;;;;16.17;5.47;;;;;;;-145.69;100.00;70580.66;5073537;28;20201;-77
2022/03/30 10:44:53;;;;;;;19.27;5.13;;;;;;;-145.69;100.00;70576.69;5073797;28;20207;-78
2022/03/30 10:47:24;;;;;;;15.07;4.90;;;;;;;-145.69;100.00;70554.81;5070930;28;21418;-80
2022/03/30 10:49:54;;;;;;;13.40;4.43;;;;;;;-145.69;100.00;70550.81;5072624;28;20230;-79
2022/03/30 10:52:47;;;;;;;14.37;4.73;;;;;;;-145.69;100.00;70534.91;5073466;28;20555;-78
2022/03/30 10:55:31;;;;;;;19.63;4.57;;;;;;;-145.69;100.00;70604.53;5053628;28;20239;-77
2022/03/30 10:58:01;;;;;;;12.20;4.57;;;;;;;-145.69;100.00;70614.47;5053055;28;20286;-76
2022/03/30 11:00:31;;;;;;;17.17;4.73;;;;;;;-145.69;100.00;70610.50;5053342;28;20203;-76
2022/03/30 11:03:14;;;;;;;13.67;4.43;;;;;;;-145.69;100.00;70604.53;5053537;28;20203;-76
2022/03/30 11:05:45;;;;;;;11.83;4.50;;;;;;;-145.69;100.00;70598.56;5053458;28;20205;-76
2022/03/30 11:08:49;;;;;;;14.37;4.93;;;;;;;-145.69;100.00;70598.56;5053198;28;20702;-77
2022/03/30 11:11:22;;;;;;;12.53;4.90;;;;;;;-145.69;100.00;70580.66;5053430;28;20230;-77
2022/03/30 11:13:49;;;;;;;12.73;4.97;;;;;;;-145.69;100.00;70552.81;5072287;28;20219;-79
2022/03/30 11:16:16;;;;;;;21.43;5.60;;;;;;;-145.69;100.00;70554.81;5071171;28;20326;-80
2022/03/30 11:19:02;;;;;;;12.00;4.60;;;;;;;-145.69;100.00;70522.97;5054912;28;20191;-78
2022/03/30 11:21:30;;;;;;;13.43;4.50;;;;;;;-145.69;100.00;70477.22;5060382;28;20197;-78
2022/03/30 11:24:18;;;;;;;13.00;4.60;;;;;;;-145.69;100.00;70435.44;5072715;28;20673;-79